Time;durP1;ratioP1;P1;durP2;ratioP2;P2;SDS_P1;SDS_P2;PMS_P1;PMS_P2;Temp;Humidity;BMP_temperature;BMP_pressure;BME280_temperature;BME280_humidity;BME280_pressure;Samples;Min_cycle;Max_cycle;Signal;HPM_P1;HPM_P2
2023/05/21 00:01:06;;;;;;;8.40;5.90;;;;;;;;;;5095280;28;20024;-71
2023/05/21 00:03:32;;;;;;;8.43;6.45;;;;;;;;;;5095474;28;20045;-73
2023/05/21 00:06:00;;;;;;;9.43;6.80;;;;;;;;;;5095344;28;20024;-68
2023/05/21 00:08:25;;;;;;;9.45;6.45;;;;;;;;;;5095195;28;20020;-72
2023/05/21 00:10:51;;;;;;;12.70;6.88;;;;;;;;;;5095264;28;20480;-72
2023/05/21 00:13:16;;;;;;;11.55;6.07;;;;;;;;;;5095102;28;20020;-72
2023/05/21 00:15:42;;;;;;;12.30;6.35;;;;;;;;;;5095014;28;20338;-73
2023/05/21 00:18:07;;;;;;;11.32;6.10;;;;;;;;;;5095101;28;20023;-69
2023/05/21 00:20:33;;;;;;;10.00;6.28;;;;;;;;;;5095170;28;20078;-64
2023/05/21 00:23:01;;;;;;;12.18;6.63;;;;;;;;;;5094801;28;20465;-65
2023/05/21 00:25:27;;;;;;;13.00;6.70;;;;;;;;;;5094912;28;20132;-65
2023/05/21 00:27:53;;;;;;;10.52;7.13;;;;;;;;;;5094754;28;20059;-64
2023/05/21 00:30:19;;;;;;;14.05;8.43;;;;;;;;;;5094915;28;20065;-70
2023/05/21 00:32:45;;;;;;;10.23;7.90;;;;;;;;;;5094704;28;20024;-72
2023/05/21 00:35:11;;;;;;;12.88;6.32;;;;;;;;;;5094832;28;20172;-69
2023/05/21 00:37:37;;;;;;;9.55;7.10;;;;;;;;;;5095447;28;20039;-73
2023/05/21 00:40:07;;;;;;;10.98;6.15;;;;;;;;;;5115200;28;20051;-72
2023/05/21 00:42:38;;;;;;;9.13;5.90;;;;;;;;;;5114952;28;20035;-69
2023/05/21 00:45:04;;;;;;;10.75;6.90;;;;;;;;;;5114875;28;20120;-68
2023/05/21 00:47:30;;;;;;;9.63;6.07;;;;;;;;;;5114925;28;20027;-71
2023/05/21 00:49:55;;;;;;;10.15;7.90;;;;;;;;;;5114922;28;20480;-64
2023/05/21 00:52:21;;;;;;;12.00;6.95;;;;;;;;;;5107425;28;20020;-64
2023/05/21 00:54:50;;;;;;;13.98;6.85;;;;;;;;;;5094377;28;20036;-64
2023/05/21 00:57:19;;;;;;;8.20;5.85;;;;;;;;;;5094235;28;20032;-67
2023/05/21 00:59:46;;;;;;;8.98;6.05;;;;;;;;;;5094166;28;20481;-67
2023/05/21 01:02:13;;;;;;;11.40;6.22;;;;;;;;;;5094415;28;20042;-64
2023/05/21 01:04:38;;;;;;;9.90;6.75;;;;;;;;;;5094155;28;20373;-64
2023/05/21 01:07:05;;;;;;;9.40;6.25;;;;;;;;;;5093355;28;20024;-70
2023/05/21 01:09:30;;;;;;;11.45;6.93;;;;;;;;;;5094059;28;20469;-65
2023/05/21 01:11:56;;;;;;;10.63;6.72;;;;;;;;;;5093909;28;20083;-69
2023/05/21 01:14:23;;;;;;;9.63;6.50;;;;;;;;;;5094179;28;20024;-64
2023/05/21 01:16:50;;;;;;;9.93;6.28;;;;;;;;;;5092821;28;20366;-73
2023/05/21 01:19:19;;;;;;;9.85;6.55;;;;;;;;;;5094003;28;20036;-70
2023/05/21 01:21:49;;;;;;;9.63;6.70;;;;;;;;;;5093538;28;20035;-65
2023/05/21 01:24:15;;;;;;;10.13;6.38;;;;;;;;;;5093883;28;20156;-70
2023/05/21 01:26:42;;;;;;;11.15;6.28;;;;;;;;;;5093657;28;20118;-64
2023/05/21 01:29:11;;;;;;;11.63;6.20;;;;;;;;;;5093685;28;20032;-73
2023/05/21 01:31:46;;;;;;;9.50;6.40;;;;;;;;;;5093863;28;20031;-68
2023/05/21 01:34:15;;;;;;;9.82;6.57;;;;;;;;;;5093796;28;20028;-73
2023/05/21 01:36:52;;;;;;;9.05;6.65;;;;;;;;;;5093558;28;20103;-73
2023/05/21 01:39:32;;;;;;;9.25;5.80;;;;;;;;;;5108767;28;20031;-68
2023/05/21 01:41:59;;;;;;;9.05;5.97;;;;;;;;;;5113883;27;20027;-73
2023/05/21 01:44:25;;;;;;;11.35;6.78;;;;;;;;;;5113664;28;20039;-73
2023/05/21 01:46:52;;;;;;;10.55;6.57;;;;;;;;;;5113983;28;20472;-74
2023/05/21 01:49:19;;;;;;;9.57;6.18;;;;;;;;;;5113689;28;20045;-69
2023/05/21 01:51:45;;;;;;;9.43;7.07;;;;;;;;;;5113801;28;20111;-72
2023/05/21 01:54:10;;;;;;;9.30;6.20;;;;;;;;;;5113794;28;20106;-73
2023/05/21 01:56:36;;;;;;;10.85;6.70;;;;;;;;;;5113481;28;20046;-70
2023/05/21 01:59:01;;;;;;;10.38;6.90;;;;;;;;;;5113706;28;20425;-73
2023/05/21 02:01:28;;;;;;;10.52;7.45;;;;;;;;;;5113755;28;20024;-73
2023/05/21 02:03:55;;;;;;;13.07;7.78;;;;;;;;;;5113464;28;20055;-66
2023/05/21 02:06:21;;;;;;;10.60;6.85;;;;;;;;;;5113574;27;20564;-74
2023/05/21 02:08:47;;;;;;;9.60;7.15;;;;;;;;;;5113468;28;20110;-71
2023/05/21 02:11:12;;;;;;;10.18;5.78;;;;;;;;;;5113083;28;20465;-67
2023/05/21 02:13:41;;;;;;;9.45;6.15;;;;;;;;;;5113395;28;20077;-70
2023/05/21 02:16:10;;;;;;;11.10;7.28;;;;;;;;;;5113430;28;20051;-74
2023/05/21 02:18:42;;;;;;;9.27;6.90;;;;;;;;;;5113104;28;20472;-75
2023/05/21 02:21:09;;;;;;;10.98;7.28;;;;;;;;;;5113072;28;20252;-73
2023/05/21 02:23:34;;;;;;;12.30;7.88;;;;;;;;;;5092956;28;20027;-74
2023/05/21 02:26:00;;;;;;;12.85;7.40;;;;;;;;;;5092521;28;20102;-67
2023/05/21 02:28:26;;;;;;;10.55;7.30;;;;;;;;;;5092813;28;20039;-68
2023/05/21 02:30:51;;;;;;;13.77;7.95;;;;;;;;;;5092924;28;20035;-72
2023/05/21 02:33:18;;;;;;;16.55;7.68;;;;;;;;;;5092832;28;20023;-73
2023/05/21 02:35:44;;;;;;;16.98;7.68;;;;;;;;;;5092865;28;20032;-68
2023/05/21 02:38:09;;;;;;;11.52;7.57;;;;;;;;;;5098059;28;20028;-70
2023/05/21 02:40:34;;;;;;;10.63;7.13;;;;;;;;;;5112741;28;20031;-72
2023/05/21 02:43:00;;;;;;;9.40;7.30;;;;;;;;;;5113078;28;20016;-71
2023/05/21 02:45:25;;;;;;;12.35;7.75;;;;;;;;;;5112839;28;20048;-74
2023/05/21 02:47:51;;;;;;;9.75;7.72;;;;;;;;;;5112934;28;20055;-72
2023/05/21 02:50:16;;;;;;;10.50;7.40;;;;;;;;;;5113158;28;20107;-74
2023/05/21 02:52:41;;;;;;;9.65;6.85;;;;;;;;;;5113029;28;20457;-74
2023/05/21 02:55:08;;;;;;;15.77;7.88;;;;;;;;;;5112888;28;20023;-73
2023/05/21 02:57:33;;;;;;;12.93;7.97;;;;;;;;;;5112885;28;20108;-70
2023/05/21 02:59:59;;;;;;;15.60;10.95;;;;;;;;;;5112852;28;20023;-66
2023/05/21 03:02:24;;;;;;;11.65;7.75;;;;;;;;;;5112796;28;20036;-71
2023/05/21 03:04:50;;;;;;;11.10;8.15;;;;;;;;;;5112798;28;20073;-74
2023/05/21 03:07:19;;;;;;;10.27;7.93;;;;;;;;;;5112801;28;20020;-69
2023/05/21 03:09:44;;;;;;;12.90;7.88;;;;;;;;;;5112803;28;20024;-74
2023/05/21 03:12:10;;;;;;;10.43;7.72;;;;;;;;;;5112825;28;20035;-69
2023/05/21 03:14:36;;;;;;;11.57;7.40;;;;;;;;;;5112898;28;20107;-70
2023/05/21 03:17:05;;;;;;;12.18;7.88;;;;;;;;;;5112720;28;20491;-70
2023/05/21 03:19:34;;;;;;;9.57;7.85;;;;;;;;;;5112850;28;20106;-66
2023/05/21 03:22:01;;;;;;;10.98;7.85;;;;;;;;;;5104821;28;20099;-68
2023/05/21 03:24:29;;;;;;;10.25;7.68;;;;;;;;;;5092238;28;20032;-73
2023/05/21 03:26:54;;;;;;;13.80;9.85;;;;;;;;;;5092471;28;20113;-72
2023/05/21 03:29:20;;;;;;;11.10;7.93;;;;;;;;;;5092239;28;20115;-70
2023/05/21 03:31:46;;;;;;;11.77;8.55;;;;;;;;;;5094691;28;20481;-73
2023/05/21 03:34:11;;;;;;;16.08;8.23;;;;;;;;;;5096066;28;20089;-74
2023/05/21 03:36:37;;;;;;;12.93;8.48;;;;;;;;;;5095785;28;20036;-70
2023/05/21 03:39:05;;;;;;;11.77;8.10;;;;;;;;;;5108968;28;20031;-64
2023/05/21 03:41:31;;;;;;;11.32;8.35;;;;;;;;;;5116475;28;20066;-65
2023/05/21 03:43:57;;;;;;;11.30;8.50;;;;;;;;;;5116035;28;20071;-66
2023/05/21 03:46:22;;;;;;;10.85;8.43;;;;;;;;;;5116297;28;20058;-72
2023/05/21 03:48:48;;;;;;;10.57;8.20;;;;;;;;;;5115882;28;20031;-70
2023/05/21 03:51:14;;;;;;;16.10;9.50;;;;;;;;;;5116036;28;20035;-70
2023/05/21 03:53:40;;;;;;;15.18;8.82;;;;;;;;;;5116140;28;20457;-73
2023/05/21 03:56:05;;;;;;;11.40;9.25;;;;;;;;;;5116113;28;20037;-70
2023/05/21 03:58:31;;;;;;;13.05;8.90;;;;;;;;;;5115932;28;20024;-67
2023/05/21 04:00:57;;;;;;;13.80;8.85;;;;;;;;;;5116006;28;20024;-64
2023/05/21 04:03:22;;;;;;;10.88;8.20;;;;;;;;;;5115965;28;20023;-64
2023/05/21 04:05:48;;;;;;;12.38;8.65;;;;;;;;;;5115526;28;20032;-65
2023/05/21 04:08:13;;;;;;;12.07;8.95;;;;;;;;;;5115669;28;20032;-70
2023/05/21 04:10:39;;;;;;;15.63;9.40;;;;;;;;;;5115780;28;20415;-66
2023/05/21 04:13:05;;;;;;;10.88;8.32;;;;;;;;;;5115675;28;20031;-65
2023/05/21 04:15:31;;;;;;;13.70;9.18;;;;;;;;;;5115735;28;20057;-64
2023/05/21 04:17:57;;;;;;;12.00;9.23;;;;;;;;;;5115495;28;20073;-64
2023/05/21 04:20:22;;;;;;;12.50;9.23;;;;;;;;;;5115285;28;20098;-64
2023/05/21 04:22:48;;;;;;;10.52;7.35;;;;;;;;;;5101035;28;20071;-64
2023/05/21 04:25:13;;;;;;;11.63;9.15;;;;;;;;;;5094960;28;20120;-66
2023/05/21 04:27:39;;;;;;;11.77;8.23;;;;;;;;;;5094981;28;20387;-70
2023/05/21 04:30:05;;;;;;;12.48;8.52;;;;;;;;;;5095163;28;20028;-68
2023/05/21 04:32:32;;;;;;;10.23;8.60;;;;;;;;;;5094937;28;20028;-70
2023/05/21 04:34:59;;;;;;;13.48;9.18;;;;;;;;;;5094817;28;20020;-67
2023/05/21 04:37:26;;;;;;;12.48;8.73;;;;;;;;;;5094550;28;20347;-71
2023/05/21 04:39:55;;;;;;;12.43;9.10;;;;;;;;;;5114722;28;20028;-65
2023/05/21 04:42:23;;;;;;;14.63;9.60;;;;;;;;;;5115112;28;20019;-65
2023/05/21 04:44:49;;;;;;;12.07;9.25;;;;;;;;;;5114956;28;20055;-65
2023/05/21 04:47:17;;;;;;;12.15;8.88;;;;;;;;;;5115075;28;20024;-65
2023/05/21 04:49:43;;;;;;;15.45;8.57;;;;;;;;;;5114702;28;20035;-68
2023/05/21 04:52:08;;;;;;;11.48;9.02;;;;;;;;;;5115215;28;20027;-65
2023/05/21 04:54:35;;;;;;;12.70;10.15;;;;;;;;;;5114909;28;20038;-68
2023/05/21 04:57:01;;;;;;;12.23;8.00;;;;;;;;;;5114920;27;20058;-67
2023/05/21 04:59:27;;;;;;;13.90;8.70;;;;;;;;;;5114654;28;20027;-65
2023/05/21 05:01:52;;;;;;;12.23;9.07;;;;;;;;;;5114752;27;20034;-64
2023/05/21 05:04:18;;;;;;;14.13;11.43;;;;;;;;;;5114540;28;20115;-64
2023/05/21 05:06:43;;;;;;;15.38;9.38;;;;;;;;;;5114748;28;20198;-63
2023/05/21 05:09:09;;;;;;;13.40;10.52;;;;;;;;;;5114534;28;20383;-68
2023/05/21 05:11:35;;;;;;;17.30;10.18;;;;;;;;;;5113425;28;20448;-70
2023/05/21 05:14:00;;;;;;;13.10;9.63;;;;;;;;;;5114585;28;20062;-70
2023/05/21 05:16:26;;;;;;;10.70;9.32;;;;;;;;;;5114404;28;20119;-68
2023/05/21 05:18:52;;;;;;;12.82;9.50;;;;;;;;;;5114112;28;20466;-71
2023/05/21 05:21:17;;;;;;;16.00;9.88;;;;;;;;;;5112646;28;20038;-73
2023/05/21 05:23:43;;;;;;;13.85;9.90;;;;;;;;;;5093868;28;20486;-67
2023/05/21 05:26:09;;;;;;;14.05;10.00;;;;;;;;;;5093803;28;20027;-71
2023/05/21 05:28:35;;;;;;;11.20;8.10;;;;;;;;;;5073603;28;20028;-73
2023/05/21 05:31:00;;;;;;;12.25;10.75;;;;;;;;;;5073664;28;20025;-67
2023/05/21 05:33:26;;;;;;;15.55;9.45;;;;;;;;;;5073223;28;20020;-67
2023/05/21 05:35:51;;;;;;;11.98;9.73;;;;;;;;;;5073510;28;20033;-65
2023/05/21 05:38:17;;;;;;;12.05;7.10;;;;;;;;;;5100108;28;20029;-64
2023/05/21 05:40:42;;;;;;;13.50;9.88;;;;;;;;;;5114172;28;20111;-67
2023/05/21 05:43:08;;;;;;;13.07;10.05;;;;;;;;;;5113939;28;20389;-64
2023/05/21 05:45:33;;;;;;;13.80;9.45;;;;;;;;;;5113783;28;20036;-70
2023/05/21 05:47:59;;;;;;;18.17;10.90;;;;;;;;;;5113484;28;20069;-70
2023/05/21 05:50:24;;;;;;;11.88;9.68;;;;;;;;;;5113267;28;20032;-74
2023/05/21 05:52:50;;;;;;;12.82;9.82;;;;;;;;;;5113569;28;20118;-70
2023/05/21 05:55:15;;;;;;;14.23;9.65;;;;;;;;;;5113093;28;20503;-72
2023/05/21 05:57:41;;;;;;;13.63;9.75;;;;;;;;;;5113560;28;20034;-73
2023/05/21 06:00:09;;;;;;;21.08;9.48;;;;;;;;;;5113630;28;20461;-72
2023/05/21 06:02:35;;;;;;;11.50;9.02;;;;;;;;;;5113245;28;20084;-70
2023/05/21 06:05:01;;;;;;;14.05;9.93;;;;;;;;;;5113420;28;20027;-74
2023/05/21 06:07:27;;;;;;;11.63;9.38;;;;;;;;;;5113443;28;20023;-70
2023/05/21 06:09:52;;;;;;;14.40;10.45;;;;;;;;;;5113351;28;20030;-72
2023/05/21 06:12:17;;;;;;;14.07;9.70;;;;;;;;;;5113541;28;20375;-70
2023/05/21 06:14:44;;;;;;;13.45;9.25;;;;;;;;;;5113447;28;20047;-71
2023/05/21 06:17:10;;;;;;;11.77;9.40;;;;;;;;;;5112777;28;20030;-72
2023/05/21 06:19:36;;;;;;;16.02;10.38;;;;;;;;;;5113257;28;20114;-70
2023/05/21 06:22:01;;;;;;;14.52;9.85;;;;;;;;;;5105164;28;20111;-62
2023/05/21 06:24:26;;;;;;;13.02;9.40;;;;;;;;;;5092834;28;20338;-62
2023/05/21 06:26:52;;;;;;;15.32;10.13;;;;;;;;;;5092869;28;20480;-69
2023/05/21 06:29:17;;;;;;;13.07;9.13;;;;;;;;;;5092825;28;20028;-63
2023/05/21 06:31:43;;;;;;;13.15;9.35;;;;;;;;;;5092553;28;20047;-68
2023/05/21 06:34:10;;;;;;;11.98;9.00;;;;;;;;;;5092732;28;20359;-70
2023/05/21 06:36:36;;;;;;;15.02;10.20;;;;;;;;;;5092512;28;20520;-67
2023/05/21 06:39:02;;;;;;;14.52;9.73;;;;;;;;;;5093520;28;20059;-72
2023/05/21 06:41:27;;;;;;;13.70;9.43;;;;;;;;;;5095719;28;20020;-68
2023/05/21 06:43:53;;;;;;;14.85;10.60;;;;;;;;;;5093785;28;20134;-68
2023/05/21 06:46:18;;;;;;;16.35;9.50;;;;;;;;;;5093821;28;20024;-65
2023/05/21 06:48:45;;;;;;;12.50;8.98;;;;;;;;;;5093726;28;20088;-71
2023/05/21 06:51:11;;;;;;;14.05;9.20;;;;;;;;;;5094020;28;20065;-71
2023/05/21 06:53:36;;;;;;;15.32;9.40;;;;;;;;;;5095493;28;20032;-70
2023/05/21 06:56:01;;;;;;;15.65;10.30;;;;;;;;;;5093915;28;20012;-71
2023/05/21 06:58:30;;;;;;;11.23;9.13;;;;;;;;;;5093889;28;20024;-71
2023/05/21 07:00:59;;;;;;;12.60;9.13;;;;;;;;;;5107091;28;20023;-71
2023/05/21 07:03:25;;;;;;;10.13;8.98;;;;;;;;;;5093195;28;20028;-63
2023/05/21 07:05:51;;;;;;;14.15;8.68;;;;;;;;;;5099187;28;20032;-63
2023/05/21 07:08:18;;;;;;;10.57;8.70;;;;;;;;;;5106909;28;20362;-63
2023/05/21 07:10:44;;;;;;;10.30;7.55;;;;;;;;;;5109634;28;20016;-62
2023/05/21 07:13:10;;;;;;;12.93;8.05;;;;;;;;;;5099527;28;20028;-62
2023/05/21 07:15:36;;;;;;;10.98;8.85;;;;;;;;;;5112317;28;20051;-66
2023/05/21 07:18:02;;;;;;;16.70;8.75;;;;;;;;;;5102382;28;20035;-68
2023/05/21 07:20:27;;;;;;;14.40;8.57;;;;;;;;;;5107251;28;20031;-67
2023/05/21 07:22:53;;;;;;;10.73;7.75;;;;;;;;;;5115974;27;20054;-66
2023/05/21 07:25:18;;;;;;;13.25;7.65;;;;;;;;;;5099278;28;20393;-63
2023/05/21 07:27:44;;;;;;;10.10;7.35;;;;;;;;;;5111166;28;20492;-73
2023/05/21 07:30:10;;;;;;;10.85;7.15;;;;;;;;;;5097574;28;20032;-73
2023/05/21 07:32:35;;;;;;;8.77;6.93;;;;;;;;;;5108117;28;20114;-69
2023/05/21 07:35:01;;;;;;;9.57;7.00;;;;;;;;;;5100430;28;20024;-73
2023/05/21 07:37:27;;;;;;;10.73;6.30;;;;;;;;;;5098530;28;20020;-71
2023/05/21 07:39:53;;;;;;;10.93;6.68;;;;;;;;;;5101714;28;20032;-72
2023/05/21 07:42:19;;;;;;;12.48;6.60;;;;;;;;;;5097932;28;20054;-72
2023/05/21 07:44:44;;;;;;;8.85;6.40;;;;;;;;;;5095823;28;20447;-67
2023/05/21 07:47:10;;;;;;;8.07;6.40;;;;;;;;;;5093985;28;20028;-63
2023/05/21 07:49:35;;;;;;;8.88;6.40;;;;;;;;;;5093693;28;20078;-67
2023/05/21 07:52:01;;;;;;;11.43;6.47;;;;;;;;;;5093618;28;20020;-70
2023/05/21 07:54:27;;;;;;;7.40;6.32;;;;;;;;;;5094528;28;20040;-73
2023/05/21 07:56:52;;;;;;;11.13;6.57;;;;;;;;;;5094290;28;20035;-73
2023/05/21 07:59:18;;;;;;;9.02;5.72;;;;;;;;;;5093333;28;20028;-73
2023/05/21 08:01:43;;;;;;;8.25;6.10;;;;;;;;;;5093308;28;20439;-73
2023/05/21 08:04:09;;;;;;;11.35;6.05;;;;;;;;;;5093456;28;20020;-74
2023/05/21 08:06:36;;;;;;;7.88;6.32;;;;;;;;;;5094032;28;20464;-73
2023/05/21 08:09:02;;;;;;;14.02;6.72;;;;;;;;;;5094246;28;20020;-73
2023/05/21 08:11:28;;;;;;;8.93;5.90;;;;;;;;;;5094310;28;20472;-73
2023/05/21 08:13:54;;;;;;;10.50;5.78;;;;;;;;;;5094878;28;20036;-67
2023/05/21 08:16:20;;;;;;;9.65;6.25;;;;;;;;;;5094825;28;20465;-75
2023/05/21 08:18:45;;;;;;;12.13;5.90;;;;;;;;;;5095132;28;20102;-73
2023/05/21 08:21:11;;;;;;;6.65;5.78;;;;;;;;;;5095048;28;20024;-74
2023/05/21 08:23:36;;;;;;;10.18;6.60;;;;;;;;;;5095014;28;20024;-70
2023/05/21 08:26:02;;;;;;;7.82;5.80;;;;;;;;;;5095041;28;20024;-71
2023/05/21 08:28:27;;;;;;;10.23;6.20;;;;;;;;;;5094770;28;20093;-66
2023/05/21 08:30:53;;;;;;;9.35;6.05;;;;;;;;;;5094989;28;20043;-73
2023/05/21 08:33:19;;;;;;;10.13;5.70;;;;;;;;;;5094795;28;20024;-70
2023/05/21 08:35:44;;;;;;;9.98;5.80;;;;;;;;;;5094876;28;20035;-70
2023/05/21 08:38:10;;;;;;;9.65;5.57;;;;;;;;;;5100117;28;20059;-73
2023/05/21 08:40:35;;;;;;;8.00;5.75;;;;;;;;;;5115307;28;20035;-70
2023/05/21 08:43:01;;;;;;;7.72;6.07;;;;;;;;;;5114865;28;20035;-72
2023/05/21 08:45:36;;;;;;;10.60;5.70;;;;;;;;;;5114921;28;20067;-71
2023/05/21 08:48:02;;;;;;;7.25;4.90;;;;;;;;;;5115204;28;20031;-74
2023/05/21 08:50:28;;;;;;;9.07;5.38;;;;;;;;;;5114884;28;20030;-72
2023/05/21 08:52:54;;;;;;;9.13;4.88;;;;;;;;;;5114991;28;20072;-72
2023/05/21 08:55:21;;;;;;;9.43;4.60;;;;;;;;;;5114850;28;20106;-69
2023/05/21 08:57:47;;;;;;;8.40;5.05;;;;;;;;;;5114896;28;20400;-66
2023/05/21 09:00:12;;;;;;;8.75;5.40;;;;;;;;;;5114879;28;20030;-74
2023/05/21 09:02:42;;;;;;;6.45;4.55;;;;;;;;;;5114651;28;20160;-69
2023/05/21 09:05:08;;;;;;;;;;;;;;;;;;5114968;28;20031;-69
2023/05/21 09:08:02;;;;;;;6.45;3.95;;;;;;;;;;5114554;28;19915;-70
2023/05/21 09:10:34;;;;;;;7.00;4.82;;;;;;;;;;5113295;28;20023;-72
2023/05/21 09:13:00;;;;;;;9.43;5.10;;;;;;;;;;5114555;28;20090;-72
2023/05/21 09:15:25;;;;;;;7.80;4.75;;;;;;;;;;5114411;28;20058;-73
2023/05/21 09:17:51;;;;;;;8.60;4.35;;;;;;;;;;5114301;28;20103;-71
2023/05/21 09:20:17;;;;;;;5.40;4.30;;;;;;;;;;5114261;28;20488;-72
2023/05/21 09:22:47;;;;;;;6.53;4.47;;;;;;;;;;5099309;28;20560;-73
2023/05/21 09:25:36;;;;;;;8.43;4.25;;;;;;;;;;5093547;28;20054;-72
2023/05/21 09:28:01;;;;;;;8.18;4.60;;;;;;;;;;5094363;28;20027;-70
2023/05/21 09:30:27;;;;;;;5.85;3.42;;;;;;;;;;5109687;28;20096;-70
2023/05/21 09:32:55;;;;;;;6.43;4.50;;;;;;;;;;5100535;28;20035;-71
2023/05/21 09:35:21;;;;;;;7.57;3.88;;;;;;;;;;5102791;28;20132;-72
2023/05/21 09:37:47;;;;;;;6.68;4.10;;;;;;;;;;5107743;28;20516;-66
2023/05/21 09:40:20;;;;;;;7.03;4.18;;;;;;;;;;5111827;28;20023;-73
2023/05/21 09:42:47;;;;;;;9.60;4.47;;;;;;;;;;5099493;28;20110;-71
2023/05/21 09:45:26;;;;;;;5.95;4.22;;;;;;;;;;5103412;28;20062;-69
2023/05/21 09:47:54;;;;;;;7.32;4.20;;;;;;;;;;5086631;28;20020;-68
2023/05/21 09:50:24;;;;;;;5.95;4.10;;;;;;;;;;5095259;28;20030;-71
2023/05/21 09:52:54;;;;;;;4.47;3.50;;;;;;;;;;5106778;28;20333;-72
2023/05/21 09:55:24;;;;;;;12.48;4.10;;;;;;;;;;5092652;28;20024;-71
2023/05/21 09:57:50;;;;;;;7.88;4.20;;;;;;;;;;5107979;28;20020;-70
2023/05/21 10:00:27;;;;;;;6.47;3.60;;;;;;;;;;5096152;28;20028;-70
2023/05/21 10:02:59;;;;;;;7.63;4.13;;;;;;;;;;5106338;28;20021;-72
2023/05/21 10:05:27;;;;;;;12.57;6.20;;;;;;;;;;5094823;28;20026;-72
2023/05/21 10:08:01;;;;;;;6.60;3.38;;;;;;;;;;5107949;28;20503;-72
2023/05/21 10:10:28;;;;;;;8.30;4.10;;;;;;;;;;5096049;28;20028;-70
2023/05/21 10:13:07;;;;;;;7.10;4.30;;;;;;;;;;5105805;28;20100;-72
2023/05/21 10:15:44;;;;;;;4.60;3.53;;;;;;;;;;5105461;28;20031;-68
2023/05/21 10:18:11;;;;;;;5.30;3.80;;;;;;;;;;5095922;28;20069;-71
2023/05/21 10:20:36;;;;;;;5.28;3.58;;;;;;;;;;5108071;28;20050;-71
2023/05/21 10:23:02;;;;;;;10.38;4.28;;;;;;;;;;5100561;28;20388;-71
2023/05/21 10:25:30;;;;;;;9.95;3.95;;;;;;;;;;5100687;28;20032;-70
2023/05/21 10:27:56;;;;;;;10.27;4.50;;;;;;;;;;5108321;28;20027;-72
2023/05/21 10:30:22;;;;;;;6.78;4.13;;;;;;;;;;5092477;27;20028;-71
2023/05/21 10:32:48;;;;;;;6.28;4.28;;;;;;;;;;5092702;28;20042;-68
2023/05/21 10:35:17;;;;;;;5.88;4.35;;;;;;;;;;5092494;28;20028;-66
2023/05/21 10:37:44;;;;;;;13.40;9.32;;;;;;;;;;5092933;28;20078;-67
2023/05/21 10:40:10;;;;;;;7.47;4.53;;;;;;;;;;5112504;28;20039;-65
2023/05/21 10:42:57;;;;;;;10.50;5.90;;;;;;;;;;5097950;28;20028;-67
2023/05/21 10:45:36;;;;;;;5.80;3.75;;;;;;;;;;5092227;28;20060;-70
2023/05/21 10:48:29;;;;;;;6.22;4.53;;;;;;;;;;5091030;28;20202;-64
2023/05/21 10:51:22;;;;;;;6.03;4.40;;;;;;;;;;5092600;28;20081;-63
2023/05/21 10:54:12;;;;;;;6.43;3.45;;;;;;;;;;5091084;28;20039;-63
2023/05/21 10:56:43;;;;;;;9.27;5.00;;;;;;;;;;5092176;28;20043;-68
2023/05/21 10:59:22;;;;;;;7.15;3.90;;;;;;;;;;5092382;28;20024;-69
2023/05/21 11:01:51;;;;;;;8.80;4.78;;;;;;;;;;5109520;28;20019;-69
2023/05/21 11:04:21;;;;;;;8.65;4.97;;;;;;;;;;5112462;28;20111;-66
2023/05/21 11:06:50;;;;;;;9.75;4.10;;;;;;;;;;5111998;28;20027;-62
2023/05/21 11:09:15;;;;;;;10.45;4.90;;;;;;;;;;5111190;28;20036;-63
2023/05/21 11:11:51;;;;;;;7.88;4.68;;;;;;;;;;5112427;28;20383;-63
2023/05/21 11:14:27;;;;;;;5.18;3.83;;;;;;;;;;5111879;28;20576;-64
2023/05/21 11:16:53;;;;;;;13.55;8.80;;;;;;;;;;5112188;28;20027;-62
2023/05/21 11:19:19;;;;;;;6.40;2.92;;;;;;;;;;5112419;28;20030;-62
2023/05/21 11:21:50;;;;;;;5.07;3.42;;;;;;;;;;5104641;28;20028;-64
2023/05/21 11:24:19;;;;;;;6.28;3.72;;;;;;;;;;5090342;28;20059;-62
2023/05/21 11:26:47;;;;;;;7.25;4.03;;;;;;;;;;5091069;28;20103;-63
2023/05/21 11:29:13;;;;;;;6.13;4.00;;;;;;;;;;5091451;28;20124;-63
2023/05/21 11:31:44;;;;;;;6.38;4.20;;;;;;;;;;5091493;28;20107;-62
2023/05/21 11:34:10;;;;;;;8.50;4.00;;;;;;;;;;5091714;28;20031;-64
2023/05/21 11:37:14;;;;;;;4.53;2.88;;;;;;;;;;5091570;28;20051;-66
2023/05/21 11:39:39;;;;;;;12.15;7.07;;;;;;;;;;5098259;28;20126;-66
2023/05/21 11:42:05;;;;;;;12.05;6.40;;;;;;;;;;5091919;28;20107;-65
2023/05/21 11:44:41;;;;;;;12.77;7.00;;;;;;;;;;5092056;28;20040;-65
2023/05/21 11:47:08;;;;;;;9.20;4.00;;;;;;;;;;5091621;28;20160;-66
2023/05/21 11:49:34;;;;;;;7.72;3.35;;;;;;;;;;5090802;28;20024;-65
2023/05/21 11:52:01;;;;;;;7.07;3.88;;;;;;;;;;5093143;28;20027;-64
2023/05/21 11:54:34;;;;;;;6.88;3.58;;;;;;;;;;5095574;28;20439;-65
2023/05/21 11:57:01;;;;;;;7.43;3.78;;;;;;;;;;5095435;28;20028;-64
2023/05/21 11:59:26;;;;;;;6.75;3.80;;;;;;;;;;5095680;28;20354;-63
2023/05/21 12:01:52;;;;;;;6.28;3.95;;;;;;;;;;5094508;28;20552;-66
2023/05/21 12:04:17;;;;;;;5.82;4.45;;;;;;;;;;5094301;28;20492;-65
2023/05/21 12:06:42;;;;;;;8.45;3.63;;;;;;;;;;5094822;28;20016;-63
2023/05/21 12:09:11;;;;;;;6.32;3.30;;;;;;;;;;5094562;28;20063;-66
2023/05/21 12:11:40;;;;;;;6.80;3.63;;;;;;;;;;5094821;28;20035;-64
2023/05/21 12:14:09;;;;;;;6.83;3.40;;;;;;;;;;5095068;28;20165;-64
2023/05/21 12:16:35;;;;;;;7.47;3.20;;;;;;;;;;5094219;28;20272;-66
2023/05/21 12:19:05;;;;;;;5.55;3.60;;;;;;;;;;5094009;28;20024;-67
2023/05/21 12:21:31;;;;;;;6.90;3.63;;;;;;;;;;5093106;28;20504;-67
2023/05/21 12:23:57;;;;;;;7.45;3.85;;;;;;;;;;5093670;28;20054;-67
2023/05/21 12:26:26;;;;;;;6.38;3.55;;;;;;;;;;5094130;28;20024;-67
2023/05/21 12:28:55;;;;;;;6.05;3.63;;;;;;;;;;5094347;28;20038;-64
2023/05/21 12:31:22;;;;;;;4.20;3.10;;;;;;;;;;5093890;28;20058;-65
2023/05/21 12:33:50;;;;;;;9.93;3.70;;;;;;;;;;5094170;28;20020;-69
2023/05/21 12:36:26;;;;;;;5.20;3.70;;;;;;;;;;5093618;28;20050;-69
2023/05/21 12:38:52;;;;;;;8.30;3.90;;;;;;;;;;5105874;28;20036;-65
2023/05/21 12:41:18;;;;;;;5.32;3.55;;;;;;;;;;5109332;28;20461;-64
2023/05/21 12:43:44;;;;;;;5.97;2.80;;;;;;;;;;5094554;28;20048;-64
2023/05/21 12:46:16;;;;;;;9.98;2.97;;;;;;;;;;5093788;28;20540;-72
2023/05/21 12:48:47;;;;;;;10.27;3.70;;;;;;;;;;5093564;28;20077;-70
2023/05/21 12:51:12;;;;;;;7.90;3.92;;;;;;;;;;5094218;28;20389;-67
2023/05/21 12:53:40;;;;;;;4.15;2.90;;;;;;;;;;5094137;28;20020;-71
2023/05/21 12:56:10;;;;;;;9.63;3.53;;;;;;;;;;5093896;28;20035;-69
2023/05/21 12:58:37;;;;;;;4.13;3.10;;;;;;;;;;5094078;28;20026;-66
2023/05/21 13:01:10;;;;;;;4.82;3.15;;;;;;;;;;5094239;28;20073;-65
2023/05/21 13:03:40;;;;;;;5.22;3.70;;;;;;;;;;5094053;28;20471;-64
2023/05/21 13:06:07;;;;;;;6.03;3.15;;;;;;;;;;5094023;28;20115;-64
2023/05/21 13:08:33;;;;;;;6.13;3.65;;;;;;;;;;5092929;28;20286;-65
2023/05/21 13:11:00;;;;;;;8.77;3.67;;;;;;;;;;5093610;28;20039;-72
2023/05/21 13:13:25;;;;;;;5.00;3.40;;;;;;;;;;5093428;28;20035;-73
2023/05/21 13:15:51;;;;;;;5.15;3.35;;;;;;;;;;5093222;28;20024;-73
2023/05/21 13:18:19;;;;;;;6.10;3.55;;;;;;;;;;5093242;28;20062;-74
2023/05/21 13:20:45;;;;;;;6.20;3.63;;;;;;;;;;5094297;28;20028;-73
2023/05/21 13:23:10;;;;;;;7.03;3.65;;;;;;;;;;5093651;28;20038;-73
2023/05/21 13:25:36;;;;;;;6.93;3.22;;;;;;;;;;5093750;28;20075;-74
2023/05/21 13:28:03;;;;;;;11.00;4.00;;;;;;;;;;5093792;28;20028;-72
2023/05/21 13:30:29;;;;;;;8.38;3.92;;;;;;;;;;5092935;28;20028;-73
2023/05/21 13:32:55;;;;;;;7.30;3.95;;;;;;;;;;5093556;28;20378;-70
2023/05/21 13:35:20;;;;;;;6.28;3.85;;;;;;;;;;5093603;28;20493;-65
2023/05/21 13:37:46;;;;;;;5.53;3.92;;;;;;;;;;5094158;28;20024;-69
2023/05/21 13:40:13;;;;;;;7.85;3.78;;;;;;;;;;5113747;28;20093;-73
2023/05/21 13:42:39;;;;;;;7.07;3.92;;;;;;;;;;5098269;28;20016;-73
2023/05/21 13:45:07;;;;;;;4.72;3.70;;;;;;;;;;5093153;28;20093;-71
2023/05/21 13:47:33;;;;;;;4.57;3.10;;;;;;;;;;5093237;28;20410;-74
2023/05/21 13:49:58;;;;;;;5.47;3.63;;;;;;;;;;5093376;28;20081;-73
2023/05/21 13:52:24;;;;;;;7.32;3.85;;;;;;;;;;5091700;28;20465;-74
2023/05/21 13:54:49;;;;;;;7.28;3.85;;;;;;;;;;5093324;28;20468;-73
2023/05/21 13:57:15;;;;;;;5.25;3.72;;;;;;;;;;5093056;28;20101;-72
2023/05/21 13:59:41;;;;;;;9.07;4.00;;;;;;;;;;5092663;28;20036;-72
2023/05/21 14:02:08;;;;;;;6.18;3.75;;;;;;;;;;5092870;28;20031;-70
2023/05/21 14:04:33;;;;;;;10.98;3.15;;;;;;;;;;5093169;28;20075;-73
2023/05/21 14:06:59;;;;;;;4.28;3.60;;;;;;;;;;5092256;28;20066;-71
2023/05/21 14:09:28;;;;;;;9.57;4.20;;;;;;;;;;5093029;28;20073;-71
2023/05/21 14:11:54;;;;;;;7.03;3.63;;;;;;;;;;5093000;28;20028;-66
2023/05/21 14:14:20;;;;;;;9.75;3.83;;;;;;;;;;5092288;28;20466;-63
2023/05/21 14:16:46;;;;;;;9.70;3.97;;;;;;;;;;5092910;28;20154;-63
2023/05/21 14:19:12;;;;;;;5.75;3.90;;;;;;;;;;5092658;28;20081;-72
2023/05/21 14:21:37;;;;;;;9.23;3.80;;;;;;;;;;5092768;28;20024;-73
2023/05/21 14:24:03;;;;;;;9.18;3.90;;;;;;;;;;5092712;28;20085;-70
2023/05/21 14:26:28;;;;;;;8.40;5.07;;;;;;;;;;5092656;28;20039;-72
2023/05/21 14:28:54;;;;;;;5.30;3.55;;;;;;;;;;5092558;28;20028;-73
2023/05/21 14:31:23;;;;;;;8.50;3.55;;;;;;;;;;5092665;28;20024;-73
2023/05/21 14:33:49;;;;;;;3.53;2.58;;;;;;;;;;5092122;28;20028;-75
2023/05/21 14:36:15;;;;;;;5.95;3.47;;;;;;;;;;5091569;28;20178;-67